YXGA weather

Gatton Showgrounds Helicopter Landing Site
Gatton, Queensland, Australia

Public forecast

Using degrees Celsius for public forecast. Weather courtesy of forecast.io.

Closest aviation weather report (METAR) to Gatton Showgrounds Helicopter Landing Site

Closest report is RAAF Base Amberley, 23.4 nm (43.3 km) ESE. Retrieved 2020/07/10 12:30 UTC (10 minutes ago):

YAMB 101230Z AUTO 00000KT 9999 // BKN036 OVC044 13/12 Q1023

Closest aviation forecast (TAF) to Gatton Showgrounds Helicopter Landing Site

Forecast is more than 12 hours old.

Closest forecast is RAAF Base Amberley, 23.4 nm (43.3 km) ESE. Retrieved 2020/07/09 11:00 UTC (1 day ago):

TAF YAMB 091006Z 0911/1012 08005KT 9999 -SHRA SCT025 BKN035 FM091800 VRB02KT 9999 MIFG SCT030 FM092200 15005KT 9999 NSW SCT035 FM100200 09008KT 9999 -SHRA SCT030 BKN045 INTER 0911/0914 4000 SHRA BKN015 PROB30 0917/0922 0800 FG SCT002